Time;durP1;ratioP1;P1;durP2;ratioP2;P2;SDS_P1;SDS_P2;PMS_P1;PMS_P2;Temp;Humidity;BMP_temperature;BMP_pressure;BME280_temperature;BME280_humidity;BME280_pressure;Samples;Min_cycle;Max_cycle;Signal;HPM_P1;HPM_P2
2021/05/17 00:02:07;;;;;;;9.67;2.23;;;;;;;;;;5092975;28;20343;-75
2021/05/17 00:04:34;;;;;;;15.73;2.57;;;;;;;;;;5092547;28;20890;-75
2021/05/17 00:07:02;;;;;;;12.23;2.30;;;;;;;;;;5092558;28;20288;-75
2021/05/17 00:09:29;;;;;;;13.53;2.20;;;;;;;;;;5092259;28;20773;-75
2021/05/17 00:11:56;;;;;;;13.57;1.93;;;;;;;;;;5092766;28;20231;-75
2021/05/17 00:14:24;;;;;;;13.87;2.30;;;;;;;;;;5092945;28;20233;-75
2021/05/17 00:16:51;;;;;;;12.77;2.30;;;;;;;;;;5092975;28;20342;-75
2021/05/17 00:19:19;;;;;;;17.83;3.10;;;;;;;;;;5092832;28;20260;-76
2021/05/17 00:21:46;;;;;;;9.83;2.10;;;;;;;;;;5092386;28;20241;-75
2021/05/17 00:24:13;;;;;;;11.37;2.83;;;;;;;;;;5092592;28;20571;-75
2021/05/17 00:26:41;;;;;;;11.47;2.53;;;;;;;;;;5092370;28;20572;-75
2021/05/17 00:29:09;;;;;;;9.07;2.20;;;;;;;;;;5092556;28;20693;-75
2021/05/17 00:31:36;;;;;;;14.90;2.33;;;;;;;;;;5084621;28;20261;-75
2021/05/17 00:34:04;;;;;;;13.13;2.27;;;;;;;;;;5092001;28;20296;-75
2021/05/17 00:36:32;;;;;;;15.00;2.97;;;;;;;;;;5091996;28;20206;-75
2021/05/17 00:39:00;;;;;;;11.27;2.33;;;;;;;;;;5091366;28;20312;-75
2021/05/17 00:41:27;;;;;;;11.87;2.10;;;;;;;;;;5092229;28;20199;-75
2021/05/17 00:43:54;;;;;;;13.23;2.23;;;;;;;;;;5092026;28;20235;-75
2021/05/17 00:46:22;;;;;;;10.73;2.00;;;;;;;;;;5092352;28;20225;-75
2021/05/17 00:48:50;;;;;;;9.57;2.13;;;;;;;;;;5091518;28;20230;-75
2021/05/17 00:51:17;;;;;;;13.20;2.40;;;;;;;;;;5091969;28;20249;-75
2021/05/17 00:53:45;;;;;;;9.40;2.07;;;;;;;;;;5091922;28;20733;-75
2021/05/17 00:56:12;;;;;;;8.67;1.97;;;;;;;;;;5092210;28;20237;-75
2021/05/17 00:58:39;;;;;;;9.87;1.90;;;;;;;;;;5092129;28;20261;-75
2021/05/17 01:01:06;;;;;;;10.27;1.83;;;;;;;;;;5091919;28;20362;-75
2021/05/17 01:03:33;;;;;;;10.63;2.17;;;;;;;;;;5092133;28;20688;-75
2021/05/17 01:06:01;;;;;;;10.53;2.10;;;;;;;;;;5091294;28;20239;-76
2021/05/17 01:08:32;;;;;;;10.23;2.00;;;;;;;;;;5091247;28;20218;-75
2021/05/17 01:11:03;;;;;;;9.17;2.10;;;;;;;;;;5091829;28;20203;-75
2021/05/17 01:13:29;;;;;;;9.67;2.00;;;;;;;;;;5092072;28;20264;-75
2021/05/17 01:15:58;;;;;;;9.03;1.90;;;;;;;;;;5091971;28;20212;-75
2021/05/17 01:18:25;;;;;;;10.93;2.00;;;;;;;;;;5092030;28;20230;-75
2021/05/17 01:20:54;;;;;;;10.27;2.00;;;;;;;;;;5091193;28;20252;-75
2021/05/17 01:23:44;;;;;;;8.07;1.77;;;;;;;;;;5091806;28;20210;-75
2021/05/17 01:26:11;;;;;;;12.60;2.10;;;;;;;;;;5091764;28;20221;-75
2021/05/17 01:28:39;;;;;;;10.73;2.30;;;;;;;;;;5091807;28;20590;-75
2021/05/17 01:31:07;;;;;;;11.07;1.83;;;;;;;;;;5091683;28;20292;-75
2021/05/17 01:33:34;;;;;;;10.77;2.30;;;;;;;;;;5091138;28;20230;-75
2021/05/17 01:36:02;;;;;;;11.20;2.43;;;;;;;;;;5091059;28;20305;-75
2021/05/17 01:38:30;;;;;;;12.57;2.20;;;;;;;;;;5090940;28;20329;-75
2021/05/17 01:40:57;;;;;;;10.03;2.20;;;;;;;;;;5071625;28;20234;-75
2021/05/17 01:43:24;;;;;;;10.70;2.40;;;;;;;;;;5081062;28;20204;-75
2021/05/17 01:45:52;;;;;;;12.27;2.20;;;;;;;;;;5090474;28;20982;-75
2021/05/17 01:48:25;;;;;;;11.37;1.80;;;;;;;;;;5090995;28;20277;-75
2021/05/17 01:50:52;;;;;;;8.63;1.60;;;;;;;;;;5078160;28;20198;-75
2021/05/17 01:53:19;;;;;;;8.53;2.30;;;;;;;;;;5091148;28;20368;-75
2021/05/17 01:55:48;;;;;;;9.57;1.80;;;;;;;;;;5090739;28;20343;-75
2021/05/17 01:58:24;;;;;;;9.53;2.03;;;;;;;;;;5071096;28;20287;-76
2021/05/17 02:00:51;;;;;;;13.60;2.10;;;;;;;;;;5071205;28;20334;-75
2021/05/17 02:03:18;;;;;;;9.30;2.20;;;;;;;;;;5076033;28;20292;-75
2021/05/17 02:05:46;;;;;;;9.20;1.93;;;;;;;;;;5090842;28;20288;-75
2021/05/17 02:08:13;;;;;;;12.97;2.77;;;;;;;;;;5090729;28;20192;-74
2021/05/17 02:10:41;;;;;;;8.40;1.87;;;;;;;;;;5090597;28;20231;-75
2021/05/17 02:13:09;;;;;;;11.93;1.93;;;;;;;;;;5090408;28;20253;-75
2021/05/17 02:15:36;;;;;;;9.47;2.07;;;;;;;;;;5090335;28;20207;-75
2021/05/17 02:18:04;;;;;;;10.63;2.20;;;;;;;;;;5091144;28;20324;-75
2021/05/17 02:20:31;;;;;;;10.50;1.80;;;;;;;;;;5091150;28;20600;-74
2021/05/17 02:22:59;;;;;;;9.07;1.80;;;;;;;;;;5091145;28;20197;-74
2021/05/17 02:25:26;;;;;;;15.17;1.90;;;;;;;;;;5090769;28;20206;-74
2021/05/17 02:27:53;;;;;;;11.00;2.30;;;;;;;;;;5090869;28;20674;-74
2021/05/17 02:30:22;;;;;;;10.73;2.13;;;;;;;;;;5091264;28;20289;-74
2021/05/17 02:32:48;;;;;;;10.00;2.57;;;;;;;;;;5090908;28;20331;-74
2021/05/17 02:35:16;;;;;;;12.17;2.20;;;;;;;;;;5090121;28;20194;-74
2021/05/17 02:37:43;;;;;;;10.80;2.20;;;;;;;;;;5090481;28;20215;-74
2021/05/17 02:40:10;;;;;;;12.83;2.30;;;;;;;;;;5090944;28;20246;-75
2021/05/17 02:42:37;;;;;;;11.87;2.13;;;;;;;;;;5089702;28;20322;-74
2021/05/17 02:45:05;;;;;;;7.47;2.00;;;;;;;;;;5091034;28;20287;-74
2021/05/17 02:47:35;;;;;;;11.57;2.13;;;;;;;;;;5093267;28;20663;-74
2021/05/17 02:50:02;;;;;;;10.33;2.00;;;;;;;;;;5094793;28;20303;-74
2021/05/17 02:52:31;;;;;;;10.33;2.00;;;;;;;;;;5094935;28;20285;-74
2021/05/17 02:55:02;;;;;;;10.57;2.30;;;;;;;;;;5094682;28;20203;-74
2021/05/17 02:57:39;;;;;;;11.43;2.30;;;;;;;;;;5094435;28;20609;-74
2021/05/17 03:00:17;;;;;;;12.87;2.40;;;;;;;;;;5094542;28;20204;-74
2021/05/17 03:02:58;;;;;;;7.47;2.07;;;;;;;;;;5094073;28;20281;-74
2021/05/17 03:05:25;;;;;;;10.20;2.30;;;;;;;;;;5094464;28;20649;-74
2021/05/17 03:07:57;;;;;;;12.27;2.23;;;;;;;;;;5094421;28;20240;-74
2021/05/17 03:10:24;;;;;;;11.97;2.17;;;;;;;;;;5093686;28;20277;-74
2021/05/17 03:12:54;;;;;;;12.70;2.30;;;;;;;;;;5094219;28;20229;-74
2021/05/17 03:15:21;;;;;;;10.63;2.30;;;;;;;;;;5094051;28;20616;-74
2021/05/17 03:17:48;;;;;;;10.50;2.63;;;;;;;;;;5094057;28;20223;-74
2021/05/17 03:20:16;;;;;;;8.83;2.23;;;;;;;;;;5093928;28;20225;-74
2021/05/17 03:22:43;;;;;;;12.13;2.53;;;;;;;;;;5093896;28;20294;-74
2021/05/17 03:25:10;;;;;;;13.40;2.67;;;;;;;;;;5093829;28;20294;-74
2021/05/17 03:27:38;;;;;;;11.37;2.80;;;;;;;;;;5093851;28;20301;-74
2021/05/17 03:30:06;;;;;;;12.47;2.47;;;;;;;;;;5093913;28;20217;-74
2021/05/17 03:32:32;;;;;;;11.53;2.80;;;;;;;;;;5093676;28;20234;-74
2021/05/17 03:34:59;;;;;;;18.80;2.67;;;;;;;;;;5092821;28;20288;-74
2021/05/17 03:37:28;;;;;;;12.47;2.50;;;;;;;;;;5093730;28;20620;-74
2021/05/17 03:39:54;;;;;;;17.47;3.00;;;;;;;;;;5093162;28;20214;-74
2021/05/17 03:42:21;;;;;;;16.23;3.17;;;;;;;;;;5093067;28;20242;-74
2021/05/17 03:44:48;;;;;;;16.93;2.77;;;;;;;;;;5093627;28;20706;-74
2021/05/17 03:47:14;;;;;;;16.60;3.23;;;;;;;;;;5093239;28;20282;-74
2021/05/17 03:49:41;;;;;;;14.97;3.00;;;;;;;;;;5093062;28;20285;-74
2021/05/17 03:52:08;;;;;;;13.20;2.67;;;;;;;;;;5092965;28;20285;-74
2021/05/17 03:54:36;;;;;;;14.67;2.30;;;;;;;;;;5093427;28;20288;-74
2021/05/17 03:57:03;;;;;;;14.90;3.17;;;;;;;;;;5092374;28;20745;-74
2021/05/17 03:59:31;;;;;;;12.33;3.20;;;;;;;;;;5093323;28;20275;-74
2021/05/17 04:01:58;;;;;;;14.07;2.87;;;;;;;;;;5092916;28;20584;-74
2021/05/17 04:04:26;;;;;;;15.60;2.87;;;;;;;;;;5093046;28;20285;-74
2021/05/17 04:06:58;;;;;;;12.43;2.60;;;;;;;;;;5092951;28;20207;-74
2021/05/17 04:13:18;;;;;;;13.47;2.53;;;;;;;;;;5092744;28;20242;-74
2021/05/17 04:15:26;;;;;;;15.23;3.00;;;;;;;;;;5092097;28;20204;-74
2021/05/17 04:17:53;;;;;;;12.80;3.17;;;;;;;;;;5092723;28;20707;-74
2021/05/17 04:20:20;;;;;;;16.70;2.97;;;;;;;;;;5092390;28;20195;-74
2021/05/17 04:22:46;;;;;;;16.03;3.00;;;;;;;;;;5092397;28;20233;-74
2021/05/17 04:25:13;;;;;;;15.13;2.77;;;;;;;;;;5092103;28;20292;-74
2021/05/17 04:27:41;;;;;;;14.77;2.93;;;;;;;;;;5093123;28;20256;-74
2021/05/17 04:30:08;;;;;;;15.80;3.00;;;;;;;;;;5092170;28;20282;-74
2021/05/17 04:32:35;;;;;;;16.90;3.07;;;;;;;;;;5092142;28;20203;-74
2021/05/17 04:35:02;;;;;;;18.83;3.20;;;;;;;;;;5093096;28;20238;-74
2021/05/17 04:37:28;;;;;;;11.13;2.77;;;;;;;;;;5092086;28;20281;-74
2021/05/17 04:39:55;;;;;;;15.87;2.77;;;;;;;;;;5080214;28;20678;-74
2021/05/17 04:42:22;;;;;;;13.30;2.83;;;;;;;;;;5076210;28;20583;-74
2021/05/17 04:44:50;;;;;;;14.83;3.07;;;;;;;;;;5092232;28;20198;-74
2021/05/17 04:47:16;;;;;;;13.03;2.90;;;;;;;;;;5092690;28;20339;-74
2021/05/17 04:49:43;;;;;;;12.23;2.77;;;;;;;;;;5091773;28;20290;-74
2021/05/17 04:52:10;;;;;;;13.80;2.57;;;;;;;;;;5092380;28;20234;-74
2021/05/17 04:54:36;;;;;;;16.43;3.37;;;;;;;;;;5092338;28;20288;-74
2021/05/17 04:57:03;;;;;;;17.67;3.10;;;;;;;;;;5092358;28;20305;-74
2021/05/17 04:59:30;;;;;;;18.23;2.93;;;;;;;;;;5091333;28;20698;-74
2021/05/17 05:01:58;;;;;;;17.17;3.30;;;;;;;;;;5092278;28;20229;-74
2021/05/17 05:04:24;;;;;;;13.67;2.90;;;;;;;;;;5091913;28;20778;-74
2021/05/17 05:06:51;;;;;;;12.30;2.70;;;;;;;;;;5092189;28;20285;-74
2021/05/17 05:09:17;;;;;;;16.40;2.77;;;;;;;;;;5091358;28;20271;-74
2021/05/17 05:11:44;;;;;;;14.97;3.20;;;;;;;;;;5091588;28;20278;-73
2021/05/17 05:14:11;;;;;;;16.90;3.20;;;;;;;;;;5090592;28;20525;-73
2021/05/17 05:16:37;;;;;;;13.00;2.80;;;;;;;;;;5091648;28;20266;-73
2021/05/17 05:19:05;;;;;;;16.20;3.00;;;;;;;;;;5092074;28;20316;-73
2021/05/17 05:21:34;;;;;;;14.23;3.20;;;;;;;;;;5091857;28;20661;-73
2021/05/17 05:24:00;;;;;;;14.53;2.97;;;;;;;;;;5091787;28;20282;-73
2021/05/17 05:26:46;;;;;;;16.07;3.00;;;;;;;;;;5091993;28;20308;-73
2021/05/17 05:29:22;;;;;;;13.20;3.33;;;;;;;;;;5081953;28;20198;-73
2021/05/17 05:31:53;;;;;;;17.63;3.17;;;;;;;;;;5091363;28;20202;-74
2021/05/17 05:34:23;;;;;;;13.47;2.93;;;;;;;;;;5091834;28;20339;-74
2021/05/17 05:36:52;;;;;;;16.83;3.00;;;;;;;;;;5090131;28;20211;-74
2021/05/17 05:39:19;;;;;;;11.60;3.13;;;;;;;;;;5086173;28;20227;-73
2021/05/17 05:41:46;;;;;;;17.07;3.00;;;;;;;;;;5088888;28;20643;-73
2021/05/17 05:44:13;;;;;;;13.40;3.47;;;;;;;;;;5090874;28;20588;-73
2021/05/17 05:46:39;;;;;;;15.53;2.87;;;;;;;;;;5091139;28;20201;-73
2021/05/17 05:49:06;;;;;;;14.10;3.23;;;;;;;;;;5091038;28;20280;-73
2021/05/17 05:51:34;;;;;;;15.77;2.77;;;;;;;;;;5090733;28;20297;-73
2021/05/17 05:54:00;;;;;;;12.43;2.70;;;;;;;;;;5090854;28;20280;-73
2021/05/17 05:56:29;;;;;;;16.07;3.37;;;;;;;;;;5090766;28;20229;-73
2021/05/17 05:58:55;;;;;;;11.03;2.53;;;;;;;;;;5090629;28;21084;-73
2021/05/17 06:01:22;;;;;;;14.27;2.80;;;;;;;;;;5091472;28;20225;-73
2021/05/17 06:03:49;;;;;;;17.80;2.63;;;;;;;;;;5091414;28;20366;-73
2021/05/17 06:06:16;;;;;;;8.73;2.27;;;;;;;;;;5090811;28;20300;-73
2021/05/17 06:08:43;;;;;;;17.43;3.03;;;;;;;;;;5085116;28;20313;-73
2021/05/17 06:11:11;;;;;;;12.07;2.80;;;;;;;;;;5078403;28;20206;-73
2021/05/17 06:13:39;;;;;;;12.00;2.50;;;;;;;;;;5083282;28;20199;-73
2021/05/17 06:16:06;;;;;;;13.63;2.60;;;;;;;;;;5090969;28;20285;-74
2021/05/17 06:18:33;;;;;;;15.13;3.00;;;;;;;;;;5091089;28;20254;-73
2021/05/17 06:21:00;;;;;;;9.80;2.60;;;;;;;;;;5093394;28;20317;-74
2021/05/17 06:23:27;;;;;;;8.97;2.30;;;;;;;;;;5093493;28;20668;-74
2021/05/17 06:25:56;;;;;;;12.43;2.27;;;;;;;;;;5087084;28;20265;-74
2021/05/17 06:28:24;;;;;;;12.70;2.53;;;;;;;;;;5094356;28;20285;-74
2021/05/17 06:30:53;;;;;;;11.40;2.20;;;;;;;;;;5093827;28;20587;-74
2021/05/17 06:33:21;;;;;;;9.13;2.17;;;;;;;;;;5090192;28;20203;-73
2021/05/17 06:35:53;;;;;;;10.87;2.47;;;;;;;;;;5093288;28;20331;-73
2021/05/17 06:38:19;;;;;;;12.57;2.30;;;;;;;;;;5094451;28;20206;-73
2021/05/17 06:40:46;;;;;;;12.83;2.40;;;;;;;;;;5099026;28;20285;-73
2021/05/17 06:43:15;;;;;;;12.20;2.13;;;;;;;;;;5094013;28;20221;-74
2021/05/17 06:45:41;;;;;;;8.73;2.30;;;;;;;;;;5091418;28;20656;-75
2021/05/17 06:48:08;;;;;;;10.37;2.03;;;;;;;;;;5096777;28;20202;-74
2021/05/17 06:50:36;;;;;;;8.57;2.13;;;;;;;;;;5093077;28;20203;-74
2021/05/17 06:53:03;;;;;;;6.13;1.67;;;;;;;;;;5093409;28;20309;-75
2021/05/17 06:55:34;;;;;;;10.90;2.27;;;;;;;;;;5093872;28;20293;-75
2021/05/17 07:00:46;;;;;;;7.87;1.60;;;;;;;;;;5092610;28;20194;-74
2021/05/17 07:03:13;;;;;;;8.70;1.90;;;;;;;;;;5093442;28;20277;-75
2021/05/17 07:05:41;;;;;;;6.87;1.50;;;;;;;;;;5092828;28;20289;-75
2021/05/17 07:13:38;;;;;;;7.13;1.87;;;;;;;;;;5095742;28;20210;-74
2021/05/17 07:16:05;;;;;;;5.53;1.90;;;;;;;;;;5100395;28;20197;-74
2021/05/17 07:18:32;;;;;;;8.07;1.90;;;;;;;;;;5100513;28;20224;-74
2021/05/17 07:23:44;;;;;;;4.93;1.47;;;;;;;;;;5099398;28;20194;-74
2021/05/17 07:26:12;;;;;;;6.30;1.63;;;;;;;;;;5099127;28;20304;-74
2021/05/17 07:28:39;;;;;;;9.50;1.70;;;;;;;;;;5085201;28;20657;-74
2021/05/17 07:31:08;;;;;;;8.07;1.80;;;;;;;;;;5099657;28;20202;-74
2021/05/17 07:33:35;;;;;;;4.60;1.23;;;;;;;;;;5092808;28;20559;-75
2021/05/17 07:36:02;;;;;;;7.17;1.50;;;;;;;;;;5091986;28;20294;-74
2021/05/17 07:38:31;;;;;;;6.00;1.70;;;;;;;;;;5093121;28;20315;-75
2021/05/17 07:40:58;;;;;;;7.13;1.60;;;;;;;;;;5091109;28;20234;-75
2021/05/17 07:43:25;;;;;;;6.00;1.50;;;;;;;;;;5093075;28;20199;-74
2021/05/17 07:45:52;;;;;;;5.47;1.40;;;;;;;;;;5092663;28;20198;-75
2021/05/17 07:48:20;;;;;;;7.33;1.40;;;;;;;;;;5093027;28;20285;-74
2021/05/17 07:50:47;;;;;;;4.23;1.30;;;;;;;;;;5092298;28;20554;-74
2021/05/17 07:53:14;;;;;;;5.13;1.70;;;;;;;;;;5092302;28;20253;-74
2021/05/17 07:55:41;;;;;;;6.37;1.60;;;;;;;;;;5092889;28;20407;-75
2021/05/17 07:58:08;;;;;;;5.43;1.50;;;;;;;;;;5098409;28;20242;-75
2021/05/17 08:00:36;;;;;;;4.97;1.40;;;;;;;;;;5097788;28;20293;-75
2021/05/17 08:03:02;;;;;;;5.10;1.40;;;;;;;;;;5092787;28;20289;-74
2021/05/17 08:05:31;;;;;;;5.57;1.20;;;;;;;;;;5091784;28;20732;-75
2021/05/17 08:07:58;;;;;;;9.20;1.70;;;;;;;;;;5091317;28;20205;-74
2021/05/17 08:10:25;;;;;;;5.77;1.60;;;;;;;;;;5091381;28;20227;-74
2021/05/17 08:12:52;;;;;;;5.40;1.53;;;;;;;;;;5091297;28;20225;-74
2021/05/17 08:15:19;;;;;;;4.47;1.27;;;;;;;;;;5091642;28;20281;-74
2021/05/17 08:17:46;;;;;;;4.37;1.50;;;;;;;;;;5092380;28;20285;-74
2021/05/17 08:20:15;;;;;;;3.47;1.30;;;;;;;;;;5098695;28;20285;-74
2021/05/17 08:22:43;;;;;;;5.20;1.43;;;;;;;;;;5096462;28;20258;-75
2021/05/17 08:25:11;;;;;;;5.53;1.83;;;;;;;;;;5099733;28;20221;-74
2021/05/17 08:27:38;;;;;;;5.23;1.60;;;;;;;;;;5093697;28;20309;-74
2021/05/17 08:30:06;;;;;;;5.63;1.53;;;;;;;;;;5099706;28;20373;-74
2021/05/17 08:32:34;;;;;;;6.17;1.40;;;;;;;;;;5098006;28;20198;-74
2021/05/17 08:35:00;;;;;;;5.53;1.50;;;;;;;;;;5096915;28;20204;-74
2021/05/17 08:37:27;;;;;;;7.03;1.53;;;;;;;;;;5098991;28;20288;-73
2021/05/17 08:39:55;;;;;;;4.97;1.80;;;;;;;;;;5100083;28;20257;-73
2021/05/17 08:42:22;;;;;;;6.93;1.40;;;;;;;;;;5102046;28;20202;-74
2021/05/17 08:44:49;;;;;;;5.63;1.60;;;;;;;;;;5091030;28;20284;-74
2021/05/17 08:47:18;;;;;;;8.57;1.50;;;;;;;;;;5097095;28;20290;-74
2021/05/17 08:49:45;;;;;;;3.80;1.30;;;;;;;;;;5086999;28;20190;-74
2021/05/17 08:52:12;;;;;;;4.77;1.63;;;;;;;;;;5085184;28;20201;-74
2021/05/17 08:54:38;;;;;;;7.35;1.70;;;;;;;;;;5077904;28;20210;-74
2021/05/17 08:57:10;;;;;;;5.00;1.50;;;;;;;;;;5088252;28;20289;-74
2021/05/17 08:59:37;;;;;;;4.70;1.50;;;;;;;;;;5089231;28;20600;-74
2021/05/17 09:02:04;;;;;;;4.93;1.63;;;;;;;;;;5088257;28;20313;-74
2021/05/17 09:04:31;;;;;;;4.63;1.33;;;;;;;;;;5090053;28;20775;-75
2021/05/17 09:06:58;;;;;;;3.83;1.53;;;;;;;;;;5086879;28;20202;-74
2021/05/17 09:09:29;;;;;;;6.77;1.50;;;;;;;;;;5090415;28;20226;-75
2021/05/17 09:11:56;;;;;;;7.17;1.40;;;;;;;;;;5091181;28;20665;-75
2021/05/17 09:14:26;;;;;;;5.33;1.23;;;;;;;;;;5090256;28;20206;-76
2021/05/17 09:16:55;;;;;;;4.40;1.40;;;;;;;;;;5090570;28;20603;-76
2021/05/17 09:19:23;;;;;;;5.70;1.70;;;;;;;;;;5089718;28;20246;-75
2021/05/17 09:22:06;;;;;;;7.03;1.60;;;;;;;;;;5088733;28;20684;-76
2021/05/17 09:24:35;;;;;;;4.63;1.70;;;;;;;;;;5085824;28;20194;-75
2021/05/17 09:27:02;;;;;;;4.93;1.40;;;;;;;;;;5091324;28;20279;-75
2021/05/17 09:29:30;;;;;;;4.47;1.30;;;;;;;;;;5090210;28;20285;-75
2021/05/17 09:31:56;;;;;;;7.07;1.50;;;;;;;;;;5090613;28;20237;-75
2021/05/17 09:34:34;;;;;;;6.73;1.40;;;;;;;;;;5089692;28;20248;-75
2021/05/17 10:21:03;;;;;;;4.78;1.00;;;;;;;;;;5011387;28;20636;-77
2021/05/17 10:23:30;;;;;;;5.78;1.15;;;;;;;;;;5009660;28;20225;-77
2021/05/17 10:26:06;;;;;;;2.20;1.00;;;;;;;;;;5009407;28;20229;-77
2021/05/17 10:28:34;;;;;;;3.95;1.10;;;;;;;;;;5004466;28;20703;-77
2021/05/17 10:31:07;;;;;;;4.45;1.20;;;;;;;;;;5002546;28;20208;-76
2021/05/17 10:33:34;;;;;;;4.13;1.10;;;;;;;;;;5003114;28;20197;-76
2021/05/17 10:36:05;;;;;;;2.90;1.10;;;;;;;;;;4963944;28;20771;-76
2021/05/17 10:38:37;;;;;;;2.42;0.80;;;;;;;;;;4948233;28;20238;-77
2021/05/17 10:41:38;;;;;;;3.20;1.00;;;;;;;;;;4946455;28;20210;-77
2021/05/17 10:44:11;;;;;;;2.78;0.73;;;;;;;;;;4944362;28;20650;-77
2021/05/17 10:46:40;;;;;;;2.65;0.90;;;;;;;;;;4947439;29;20215;-76
2021/05/17 10:49:19;;;;;;;3.10;1.08;;;;;;;;;;4947696;28;20691;-76
2021/05/17 10:51:48;;;;;;;2.50;1.00;;;;;;;;;;4951258;28;20645;-77
2021/05/17 10:54:25;;;;;;;2.67;1.00;;;;;;;;;;4954216;28;20537;-77
2021/05/17 10:56:55;;;;;;;3.10;1.10;;;;;;;;;;4949796;28;20217;-77
2021/05/17 11:02:11;;;;;;;2.20;0.90;;;;;;;;;;4949494;28;20254;-77
2021/05/17 11:04:39;;;;;;;3.00;0.80;;;;;;;;;;4949546;28;20204;-77
2021/05/17 11:07:20;;;;;;;3.15;1.13;;;;;;;;;;4949750;28;20198;-77
2021/05/17 11:09:51;;;;;;;2.30;0.82;;;;;;;;;;4955516;28;20250;-77
2021/05/17 11:12:36;;;;;;;2.95;0.85;;;;;;;;;;4955824;28;21491;-77
2021/05/17 11:15:04;;;;;;;2.75;1.00;;;;;;;;;;4947413;28;20282;-77
2021/05/17 11:17:31;;;;;;;3.33;0.95;;;;;;;;;;4948004;28;20852;-77
2021/05/17 11:19:58;;;;;;;2.65;1.10;;;;;;;;;;4950399;28;20346;-78
2021/05/17 11:22:39;;;;;;;2.67;0.80;;;;;;;;;;4953424;28;20282;-77
2021/05/17 11:25:07;;;;;;;4.38;0.80;;;;;;;;;;4952613;28;20282;-78
2021/05/17 11:27:46;;;;;;;2.15;0.70;;;;;;;;;;4951638;28;20241;-78
2021/05/17 11:30:31;;;;;;;2.08;0.63;;;;;;;;;;4952487;29;20851;-78
2021/05/17 11:33:11;;;;;;;1.88;0.73;;;;;;;;;;4953630;28;20199;-78
2021/05/17 11:35:38;;;;;;;3.28;1.20;;;;;;;;;;4955089;28;20290;-78
2021/05/17 11:38:08;;;;;;;2.65;0.85;;;;;;;;;;4956413;28;20217;-77
2021/05/17 11:40:37;;;;;;;2.58;0.98;;;;;;;;;;4954810;28;20207;-77
2021/05/17 11:43:03;;;;;;;2.30;0.82;;;;;;;;;;4956039;28;20286;-77
2021/05/17 11:45:36;;;;;;;2.95;0.80;;;;;;;;;;4950544;28;20215;-78
2021/05/17 11:48:03;;;;;;;2.10;0.90;;;;;;;;;;4955946;28;20608;-78
2021/05/17 11:50:29;;;;;;;2.70;0.82;;;;;;;;;;4957909;28;20202;-78
2021/05/17 11:52:57;;;;;;;5.20;0.95;;;;;;;;;;4955670;28;20203;-77
2021/05/17 11:55:23;;;;;;;4.32;0.90;;;;;;;;;;4954543;28;20238;-77
2021/05/17 11:57:52;;;;;;;4.00;0.90;;;;;;;;;;4954900;28;20254;-77
2021/05/17 12:00:24;;;;;;;2.85;1.00;;;;;;;;;;4953221;28;20285;-77
2021/05/17 12:02:52;;;;;;;1.83;0.70;;;;;;;;;;4955235;28;20199;-77
2021/05/17 12:05:19;;;;;;;2.25;0.70;;;;;;;;;;4950676;28;20322;-77
2021/05/17 12:07:46;;;;;;;2.17;0.88;;;;;;;;;;4962604;28;20203;-78
2021/05/17 12:10:14;;;;;;;2.40;0.80;;;;;;;;;;4957989;28;20355;-77
2021/05/17 12:12:40;;;;;;;5.30;0.88;;;;;;;;;;4951134;28;20211;-78
2021/05/17 12:15:11;;;;;;;2.58;0.95;;;;;;;;;;4957092;28;20604;-77
2021/05/17 12:17:38;;;;;;;2.20;0.70;;;;;;;;;;4950434;29;20210;-77
2021/05/17 12:20:06;;;;;;;2.42;0.77;;;;;;;;;;4954026;28;20729;-76
2021/05/17 12:22:35;;;;;;;4.93;1.55;;;;;;;;;;4951891;29;20290;-77
2021/05/17 12:25:02;;;;;;;3.15;0.90;;;;;;;;;;4952051;29;20203;-77
2021/05/17 12:27:29;;;;;;;3.67;1.30;;;;;;;;;;4952785;28;20286;-77
2021/05/17 12:30:00;;;;;;;2.72;0.90;;;;;;;;;;4952475;29;20327;-77
2021/05/17 12:32:43;;;;;;;1.27;0.68;;;;;;;;;;4951976;28;20298;-77
2021/05/17 12:35:11;;;;;;;2.15;0.70;;;;;;;;;;4955668;28;20254;-77
2021/05/17 12:37:39;;;;;;;2.53;0.82;;;;;;;;;;4950618;28;20289;-77
2021/05/17 12:40:21;;;;;;;4.00;0.82;;;;;;;;;;4952045;28;20207;-77
2021/05/17 12:42:58;;;;;;;1.90;0.73;;;;;;;;;;4950787;28;20991;-77
2021/05/17 12:45:25;;;;;;;2.38;0.70;;;;;;;;;;4950884;28;20314;-77
2021/05/17 12:47:52;;;;;;;1.58;0.80;;;;;;;;;;4955778;28;20293;-76
2021/05/17 12:50:19;;;;;;;1.42;0.60;;;;;;;;;;4952282;28;20206;-77
2021/05/17 12:52:47;;;;;;;1.73;0.70;;;;;;;;;;4956023;28;20298;-77
2021/05/17 12:55:16;;;;;;;4.43;0.77;;;;;;;;;;4952786;28;20293;-77
2021/05/17 12:57:50;;;;;;;2.35;0.70;;;;;;;;;;4955524;28;20203;-77
2021/05/17 13:00:18;;;;;;;3.40;0.60;;;;;;;;;;4953381;28;20237;-77
2021/05/17 13:03:00;;;;;;;2.00;0.80;;;;;;;;;;4944291;29;20242;-77
2021/05/17 13:05:27;;;;;;;1.67;0.65;;;;;;;;;;4950817;28;20202;-77
2021/05/17 13:08:00;;;;;;;1.58;0.65;;;;;;;;;;4952462;28;20282;-77
2021/05/17 13:10:27;;;;;;;4.97;0.70;;;;;;;;;;4949877;28;20582;-77
2021/05/17 13:12:54;;;;;;;2.45;0.70;;;;;;;;;;4951902;28;20237;-77
2021/05/17 13:15:21;;;;;;;2.25;0.80;;;;;;;;;;4950634;29;20200;-77
2021/05/17 13:17:55;;;;;;;2.72;0.95;;;;;;;;;;4951214;28;20206;-77
2021/05/17 13:20:24;;;;;;;4.43;1.40;;;;;;;;;;4951313;29;20369;-77
2021/05/17 13:23:17;;;;;;;2.15;0.80;;;;;;;;;;4951608;28;20207;-77
2021/05/17 13:31:13;;;;;;;3.10;0.80;;;;;;;;;;4891301;29;20217;-79
2021/05/17 13:33:42;;;;;;;3.30;0.77;;;;;;;;;;4892075;29;20205;-78
2021/05/17 13:36:12;;;;;;;2.53;0.70;;;;;;;;;;4895152;29;20320;-78
2021/05/17 13:38:41;;;;;;;2.03;0.70;;;;;;;;;;4900529;29;20307;-78
2021/05/17 13:41:08;;;;;;;4.83;0.77;;;;;;;;;;4899782;29;20297;-78
2021/05/17 13:43:35;;;;;;;2.80;0.70;;;;;;;;;;4888109;29;20213;-78
2021/05/17 13:46:02;;;;;;;3.65;0.70;;;;;;;;;;4895655;29;20223;-79
2021/05/17 13:48:29;;;;;;;4.55;1.20;;;;;;;;;;4891657;29;20281;-79
2021/05/17 13:50:56;;;;;;;2.20;0.60;;;;;;;;;;4893137;29;20240;-78
2021/05/17 13:53:23;;;;;;;2.85;0.88;;;;;;;;;;4893676;29;20252;-78
2021/05/17 13:55:50;;;;;;;2.22;0.68;;;;;;;;;;4892171;29;20216;-79
2021/05/17 13:58:17;;;;;;;3.13;0.70;;;;;;;;;;4892360;29;20243;-78
2021/05/17 14:00:45;;;;;;;2.22;0.70;;;;;;;;;;4888194;29;20244;-79
2021/05/17 14:03:15;;;;;;;3.17;0.80;;;;;;;;;;4891051;29;20245;-78
2021/05/17 14:05:43;;;;;;;2.13;1.20;;;;;;;;;;4891587;29;20284;-78
2021/05/17 14:08:10;;;;;;;4.75;1.30;;;;;;;;;;4918414;29;20199;-79
2021/05/17 14:10:37;;;;;;;2.80;0.90;;;;;;;;;;4952062;29;20219;-78
2021/05/17 14:13:04;;;;;;;4.07;0.80;;;;;;;;;;4951156;28;20712;-78
2021/05/17 14:15:31;;;;;;;3.63;1.00;;;;;;;;;;4954454;28;20247;-78
2021/05/17 14:17:58;;;;;;;2.72;1.02;;;;;;;;;;4952460;28;20230;-77
2021/05/17 14:20:25;;;;;;;2.77;0.87;;;;;;;;;;4951530;28;20374;-78
2021/05/17 14:22:53;;;;;;;3.93;0.90;;;;;;;;;;4952972;28;20211;-78
2021/05/17 14:27:48;;;;;;;2.07;0.80;;;;;;;;;;4707862;29;20457;-73
2021/05/17 14:30:17;;;;;;;4.47;1.20;;;;;;;;;;4941622;29;20210;-75
2021/05/17 14:32:44;;;;;;;2.27;0.83;;;;;;;;;;4941060;29;20258;-74
2021/05/17 14:35:12;;;;;;;3.77;0.90;;;;;;;;;;4942733;29;20218;-76
2021/05/17 14:37:39;;;;;;;2.45;0.70;;;;;;;;;;4942893;29;20685;-76
2021/05/17 14:40:06;;;;;;;3.03;1.00;;;;;;;;;;4942911;29;20441;-76
2021/05/17 14:42:33;;;;;;;1.83;0.80;;;;;;;;;;4945031;29;20215;-76
2021/05/17 14:45:00;;;;;;;2.13;0.60;;;;;;;;;;4944349;29;20231;-76
2021/05/17 14:47:27;;;;;;;0.93;0.57;;;;;;;;;;4944369;29;20231;-75
2021/05/17 14:49:54;;;;;;;1.98;0.50;;;;;;;;;;4943412;29;20253;-74
2021/05/17 14:52:21;;;;;;;1.10;0.35;;;;;;;;;;4941855;29;20235;-76
2021/05/17 14:54:50;;;;;;;1.40;0.70;;;;;;;;;;4945533;29;20286;-74
2021/05/17 14:57:17;;;;;;;1.33;0.60;;;;;;;;;;4947299;29;20207;-76
2021/05/17 14:59:44;;;;;;;1.90;0.70;;;;;;;;;;4948224;29;21614;-76
2021/05/17 15:02:11;;;;;;;1.67;0.57;;;;;;;;;;4946037;29;20282;-76
2021/05/17 15:04:38;;;;;;;2.27;0.70;;;;;;;;;;4948325;29;20212;-76
2021/05/17 15:07:05;;;;;;;2.57;1.33;;;;;;;;;;4947596;29;20633;-75
2021/05/17 15:09:32;;;;;;;1.70;0.83;;;;;;;;;;4942892;28;20226;-75
2021/05/17 15:11:58;;;;;;;4.63;1.30;;;;;;;;;;4946352;29;20269;-75
2021/05/17 15:14:25;;;;;;;3.13;1.23;;;;;;;;;;4946235;29;20215;-75
2021/05/17 15:19:33;;;;;;;3.53;1.30;;;;;;;;;;4945383;28;20291;-75
2021/05/17 15:22:01;;;;;;;3.53;1.50;;;;;;;;;;4941972;29;20243;-73
2021/05/17 15:24:32;;;;;;;4.67;2.00;;;;;;;;;;4944187;29;20246;-73
2021/05/17 15:26:58;;;;;;;3.80;1.73;;;;;;;;;;4948478;29;20330;-74
2021/05/17 15:29:25;;;;;;;4.53;2.23;;;;;;;;;;4940007;29;20291;-72
2021/05/17 15:31:52;;;;;;;3.13;1.83;;;;;;;;;;4945132;29;20298;-74
2021/05/17 15:34:20;;;;;;;4.40;1.17;;;;;;;;;;4942889;29;20304;-73
2021/05/17 15:36:47;;;;;;;1.77;1.00;;;;;;;;;;4946943;29;20204;-73
2021/05/17 15:39:15;;;;;;;2.20;1.27;;;;;;;;;;4947831;29;20318;-74
2021/05/17 15:41:45;;;;;;;2.47;1.03;;;;;;;;;;4939581;29;20294;-73
2021/05/17 15:44:12;;;;;;;3.47;1.20;;;;;;;;;;4948061;28;20203;-73
2021/05/17 15:46:39;;;;;;;2.50;1.00;;;;;;;;;;4943470;29;20295;-73
2021/05/17 15:49:06;;;;;;;4.50;1.10;;;;;;;;;;4947440;29;20227;-73
2021/05/17 15:51:32;;;;;;;3.43;1.00;;;;;;;;;;4941488;29;20298;-74
2021/05/17 15:53:59;;;;;;;3.60;1.20;;;;;;;;;;4943255;29;20309;-73
2021/05/17 15:56:27;;;;;;;2.23;1.10;;;;;;;;;;4947924;29;20668;-73
2021/05/17 15:58:54;;;;;;;2.70;1.23;;;;;;;;;;4944592;29;20320;-74